createdAt,value
2022-12-01T00:01:39.002Z,102489.00
2022-12-01T00:04:07.212Z,102501.59
2022-12-01T00:06:35.301Z,102495.31
2022-12-01T00:09:22.038Z,102502.78
2022-12-01T00:11:50.408Z,102504.28
2022-12-01T00:14:18.931Z,102505.81
2022-12-01T00:16:47.169Z,102518.75
2022-12-01T00:19:15.303Z,102500.75
2022-12-01T00:21:43.367Z,102511.94
2022-12-01T00:24:13.277Z,102515.31
2022-12-01T00:26:41.595Z,102520.53
2022-12-01T00:29:09.998Z,102522.41
2022-12-01T00:31:38.246Z,102520.78
2022-12-01T00:34:11.061Z,102519.97
2022-12-01T00:36:40.600Z,102522.41
2022-12-01T00:39:09.262Z,102526.91
2022-12-01T00:41:38.828Z,102519.50
2022-12-01T00:44:07.178Z,102523.22
2022-12-01T00:46:35.299Z,102516.63
2022-12-01T00:49:03.357Z,102524.59
2022-12-01T00:51:31.658Z,102531.69
2022-12-01T00:53:59.807Z,102526.56
2022-12-01T00:56:28.188Z,102532.75
2022-12-01T00:58:57.947Z,102533.63
2022-12-01T01:01:26.267Z,102538.03
2022-12-01T01:03:54.515Z,102533.88
2022-12-01T01:06:22.692Z,102541.75
2022-12-01T01:08:50.839Z,102547.06
2022-12-01T01:11:19.041Z,102550.59
2022-12-01T01:13:47.189Z,102544.72
2022-12-01T01:16:19.856Z,102554.31
2022-12-01T01:18:48.249Z,102555.28
2022-12-01T01:21:18.191Z,102559.56
2022-12-01T01:23:46.604Z,102560.44
2022-12-01T01:26:16.575Z,102558.06
2022-12-01T01:28:44.791Z,102557.31
2022-12-01T01:31:17.852Z,102565.13
2022-12-01T01:33:46.149Z,102563.69
2022-12-01T01:36:14.862Z,102565.38
2022-12-01T01:38:43.325Z,102567.22
2022-12-01T01:41:12.144Z,102563.03
2022-12-01T01:43:45.850Z,102574.31
2022-12-01T01:46:16.164Z,102566.66
2022-12-01T01:48:49.571Z,102565.78
2022-12-01T01:51:21.945Z,102576.16
2022-12-01T01:53:52.143Z,102577.13
2022-12-01T01:56:20.044Z,102573.03
2022-12-01T01:58:48.736Z,102571.25
2022-12-01T02:01:16.855Z,102568.50
2022-12-01T02:03:47.510Z,102566.75
2022-12-01T02:06:16.357Z,102568.50
2022-12-01T02:08:44.581Z,102570.28
2022-12-01T02:11:34.685Z,102567.69
2022-12-01T02:14:10.012Z,102562.56
2022-12-01T02:16:48.252Z,102557.31
2022-12-01T02:19:42.347Z,102561.59
2022-12-01T02:22:20.709Z,102564.19
2022-12-01T02:25:24.568Z,102557.16
2022-12-01T02:28:31.071Z,102557.81
2022-12-01T02:31:05.828Z,102556.53
2022-12-01T02:33:39.755Z,102563.94
2022-12-01T02:36:17.027Z,102552.38
2022-12-01T02:38:53.245Z,102563.41
2022-12-01T02:41:29.660Z,102567.66
2022-12-01T02:44:06.988Z,102579.91
2022-12-01T02:46:41.908Z,102572.31
2022-12-01T02:49:15.590Z,102570.81
2022-12-01T02:51:45.814Z,102578.66
2022-12-01T02:54:14.608Z,102577.06
2022-12-01T02:56:45.776Z,102573.66
2022-12-01T02:59:16.368Z,102560.69
2022-12-01T03:02:07.804Z,102570.66
2022-12-01T03:04:47.801Z,102576.16
2022-12-01T03:07:33.264Z,102572.28
2022-12-01T03:10:13.351Z,102575.19
2022-12-01T03:12:51.872Z,102578.22
2022-12-01T03:15:32.266Z,102572.72
2022-12-01T03:18:09.000Z,102582.03
2022-12-01T03:20:42.311Z,102569.91
2022-12-01T03:23:14.980Z,102575.06
2022-12-01T03:25:48.515Z,102561.38
2022-12-01T03:28:22.643Z,102565.75
2022-12-01T03:30:56.260Z,102562.38
2022-12-01T03:33:32.712Z,102572.66
2022-12-01T03:36:04.791Z,102570.97
2022-12-01T03:38:36.383Z,102575.31
2022-12-01T03:41:09.519Z,102569.53
2022-12-01T03:43:42.253Z,102572.25
2022-12-01T03:46:13.706Z,102575.09
2022-12-01T03:48:43.614Z,102576.94
2022-12-01T03:51:16.944Z,102576.31
2022-12-01T03:53:52.873Z,102574.72
2022-12-01T03:56:25.371Z,102574.88
2022-12-01T03:58:58.212Z,102580.94
2022-12-01T04:01:28.347Z,102580.94
2022-12-01T04:03:57.597Z,102581.97
2022-12-01T04:06:25.832Z,102584.56
2022-12-01T04:08:53.939Z,102586.41
2022-12-01T04:11:39.437Z,102583.88
2022-12-01T04:14:07.525Z,102584.06
2022-12-01T04:16:35.730Z,102590.09
2022-12-01T04:19:05.514Z,102591.06
2022-12-01T04:21:33.695Z,102588.59
2022-12-01T04:24:01.933Z,102587.75
2022-12-01T04:26:31.014Z,102584.38
2022-12-01T04:28:59.685Z,102586.97
2022-12-01T04:31:28.510Z,102591.31
2022-12-01T04:33:56.866Z,102590.56
2022-12-01T04:36:27.227Z,102589.75
2022-12-01T04:38:55.451Z,102584.78
2022-12-01T04:41:23.727Z,102588.28
2022-12-01T04:43:54.735Z,102586.63
2022-12-01T04:46:23.273Z,102591.78
2022-12-01T04:48:51.707Z,102584.13
2022-12-01T04:51:21.530Z,102584.13
2022-12-01T04:53:51.427Z,102580.75
2022-12-01T04:56:19.941Z,102573.91
2022-12-01T04:58:48.107Z,102568.66
2022-12-01T05:01:18.372Z,102568.59
2022-12-01T05:03:50.372Z,102575.28
2022-12-01T05:06:20.113Z,102574.22
2022-12-01T05:08:48.616Z,102573.16
2022-12-01T05:11:19.681Z,102583.44
2022-12-01T05:13:49.536Z,102579.91
2022-12-01T05:16:20.243Z,102578.31
2022-12-01T05:19:12.285Z,102580.03
2022-12-01T05:21:39.940Z,102577.56
2022-12-01T05:24:08.602Z,102575.09
2022-12-01T05:26:38.318Z,102578.66
2022-12-01T05:29:08.704Z,102582.09
2022-12-01T05:31:36.945Z,102576.88
2022-12-01T05:34:05.318Z,102585.41
2022-12-01T05:36:33.923Z,102580.16
2022-12-01T05:39:02.051Z,102584.25
2022-12-01T05:41:30.121Z,102579.72
2022-12-01T05:43:59.665Z,102571.69
2022-12-01T05:46:27.852Z,102577.91
2022-12-01T05:48:56.095Z,102571.31
2022-12-01T05:51:24.573Z,102572.31
2022-12-01T05:53:52.688Z,102570.84
2022-12-01T05:56:20.895Z,102568.53
2022-12-01T05:58:48.919Z,102563.78
2022-12-01T06:01:18.596Z,102563.34
2022-12-01T06:03:46.821Z,102575.13
2022-12-01T06:06:15.223Z,102579.56
2022-12-01T06:08:43.339Z,102576.97
2022-12-01T06:11:11.495Z,102587.97
2022-12-01T06:13:40.075Z,102592.06
2022-12-01T06:16:09.027Z,102597.84
2022-12-01T06:18:39.863Z,102596.59
2022-12-01T06:21:08.384Z,102597.91
2022-12-01T06:23:36.610Z,102604.53
2022-12-01T06:26:05.020Z,102610.59
2022-12-01T06:28:33.245Z,102609.69
2022-12-01T06:31:03.742Z,102610.66
2022-12-01T06:33:32.709Z,102607.91
2022-12-01T06:36:03.750Z,102625.81
2022-12-01T06:38:33.358Z,102617.03
2022-12-01T06:41:01.489Z,102616.31
2022-12-01T06:43:29.819Z,102616.41
2022-12-01T06:46:01.955Z,102613.03
2022-12-01T06:48:30.664Z,102619.09
2022-12-01T06:50:59.000Z,102616.59
2022-12-01T06:53:28.845Z,102619.97
2022-12-01T06:56:01.251Z,102614.81
2022-12-01T06:58:29.928Z,102622.72
2022-12-01T07:00:58.956Z,102616.94
2022-12-01T07:03:27.408Z,102621.56
2022-12-01T07:06:00.084Z,102624.50
2022-12-01T07:08:31.004Z,102624.75
2022-12-01T07:11:00.499Z,102629.31
2022-12-01T07:13:33.137Z,102623.38
2022-12-01T07:16:02.374Z,102624.16
2022-12-01T07:18:31.038Z,102612.19
2022-12-01T07:21:02.264Z,102618.91
2022-12-01T07:23:32.450Z,102624.75
2022-12-01T07:26:02.812Z,102629.03
2022-12-01T07:28:31.445Z,102621.06
2022-12-01T07:31:04.256Z,102621.56
2022-12-01T07:33:33.032Z,102621.22
2022-12-01T07:36:01.644Z,102625.09
2022-12-01T07:38:33.591Z,102620.75
2022-12-01T07:41:05.761Z,102623.31
2022-12-01T07:43:34.599Z,102620.94
2022-12-01T07:46:08.819Z,102622.88
2022-12-01T07:48:38.382Z,102618.72
2022-12-01T07:51:06.751Z,102617.94
2022-12-01T07:53:40.045Z,102613.59
2022-12-01T07:56:09.014Z,102614.56
2022-12-01T07:58:42.859Z,102622.38
2022-12-01T08:01:13.274Z,102627.59
2022-12-01T08:03:42.513Z,102628.69
2022-12-01T08:06:11.589Z,102633.09
2022-12-01T08:08:42.798Z,102632.47
2022-12-01T08:11:13.538Z,102639.59
2022-12-01T08:13:43.862Z,102638.16
2022-12-01T08:16:13.643Z,102647.84
2022-12-01T08:18:42.964Z,102641.25
2022-12-01T08:21:13.000Z,102649.06
2022-12-01T08:23:42.802Z,102653.50
2022-12-01T08:26:14.030Z,102646.75
2022-12-01T08:28:42.754Z,102649.59
2022-12-01T08:31:12.248Z,102649.84
2022-12-01T08:33:40.406Z,102646.66
2022-12-01T08:36:09.124Z,102654.53
2022-12-01T08:38:37.265Z,102654.47
2022-12-01T08:41:08.604Z,102652.94
2022-12-01T08:46:29.627Z,102653.13
2022-12-01T08:48:58.180Z,102649.91
2022-12-01T08:51:27.321Z,102647.53
2022-12-01T08:53:56.754Z,102647.53
2022-12-01T08:56:28.151Z,102652.03
2022-12-01T08:58:56.641Z,102642.66
2022-12-01T09:01:26.472Z,102650.78
2022-12-01T09:04:05.916Z,102653.53
2022-12-01T09:06:39.973Z,102652.91
2022-12-01T09:09:08.168Z,102656.63
2022-12-01T09:11:37.885Z,102658.53
2022-12-01T09:14:06.300Z,102658.97
2022-12-01T09:16:34.839Z,102655.09
2022-12-01T09:19:03.792Z,102652.84
2022-12-01T09:21:34.881Z,102647.22
2022-12-01T09:24:03.912Z,102651.09
2022-12-01T09:26:32.463Z,102649.56
2022-12-01T09:29:04.885Z,102649.19
2022-12-01T09:31:34.486Z,102646.13
2022-12-01T09:34:04.860Z,102653.19
2022-12-01T09:36:34.379Z,102644.84
2022-12-01T09:39:02.991Z,102653.13
2022-12-01T09:41:34.612Z,102651.75
2022-12-01T09:44:14.033Z,102664.28
2022-12-01T09:46:47.488Z,102662.13
2022-12-01T09:49:20.103Z,102662.34
2022-12-01T09:51:48.295Z,102669.53
2022-12-01T09:54:16.666Z,102672.34
2022-12-01T09:56:49.499Z,102677.16
2022-12-01T09:59:23.850Z,102679.22
2022-12-01T10:01:56.443Z,102681.13
2022-12-01T10:04:30.071Z,102687.34
2022-12-01T10:07:02.311Z,102687.50
2022-12-01T10:09:37.759Z,102682.63
2022-12-01T10:12:14.565Z,102674.25
2022-12-01T10:14:46.093Z,102679.69
2022-12-01T10:17:28.470Z,102674.91
2022-12-01T10:20:02.291Z,102673.38
2022-12-01T10:22:46.568Z,102678.09
2022-12-01T10:25:23.416Z,102668.22
2022-12-01T10:28:13.851Z,102668.72
2022-12-01T10:30:51.010Z,102662.19
2022-12-01T10:33:25.369Z,102656.47
2022-12-01T10:35:54.902Z,102658.47
2022-12-01T10:38:28.619Z,102654.59
2022-12-01T10:41:00.979Z,102649.84
2022-12-01T10:43:34.333Z,102654.53
2022-12-01T10:46:09.690Z,102648.09
2022-12-01T10:48:53.951Z,102650.94
2022-12-01T10:51:22.772Z,102643.41
2022-12-01T10:53:51.497Z,102638.22
2022-12-01T10:56:21.925Z,102641.69
2022-12-01T10:58:52.954Z,102641.88
2022-12-01T11:01:25.388Z,102639.50
2022-12-01T11:03:58.126Z,102636.91
2022-12-01T11:06:30.684Z,102640.41
2022-12-01T11:09:01.405Z,102642.91
2022-12-01T11:11:33.166Z,102636.91
2022-12-01T11:14:06.133Z,102637.88
2022-12-01T11:16:44.114Z,102628.41
2022-12-01T11:19:29.353Z,102627.69
2022-12-01T11:21:58.956Z,102631.31
2022-12-01T11:24:31.100Z,102634.97
2022-12-01T11:27:00.960Z,102632.72
2022-12-01T11:29:36.725Z,102623.53
2022-12-01T11:32:17.909Z,102622.25
2022-12-01T11:34:51.831Z,102619.00
2022-12-01T11:37:22.835Z,102624.31
2022-12-01T11:39:53.023Z,102614.97
2022-12-01T11:42:29.114Z,102616.84
2022-12-01T11:45:06.497Z,102612.72
2022-12-01T11:47:36.011Z,102610.47
2022-12-01T11:50:24.185Z,102608.00
2022-12-01T11:52:52.341Z,102603.84
2022-12-01T11:55:24.762Z,102599.47
2022-12-01T11:57:55.922Z,102608.09
2022-12-01T12:00:26.403Z,102609.13
2022-12-01T12:03:20.234Z,102601.44
2022-12-01T12:06:39.125Z,102600.53
2022-12-01T12:09:04.414Z,102601.69
2022-12-01T12:11:41.507Z,102598.28
2022-12-01T12:14:31.725Z,102598.38
2022-12-01T12:17:14.844Z,102592.53
2022-12-01T12:20:07.600Z,102595.97
2022-12-01T12:22:52.342Z,102595.34
2022-12-01T12:25:32.370Z,102591.06
2022-12-01T12:28:17.108Z,102590.16
2022-12-01T12:30:57.277Z,102589.38
2022-12-01T12:33:43.401Z,102591.16
2022-12-01T12:36:25.650Z,102582.53
2022-12-01T12:39:05.922Z,102587.09
2022-12-01T12:41:36.890Z,102581.22
2022-12-01T12:44:30.014Z,102591.41
2022-12-01T12:47:14.642Z,102595.47
2022-12-01T12:49:50.376Z,102590.94
2022-12-01T12:52:25.126Z,102587.13
2022-12-01T12:54:58.763Z,102592.00
2022-12-01T12:57:32.717Z,102594.34
2022-12-01T13:00:04.329Z,102584.53
2022-12-01T13:02:37.677Z,102581.75
2022-12-01T13:05:11.549Z,102584.03
2022-12-01T13:07:46.950Z,102575.38
2022-12-01T13:10:29.787Z,102572.66
2022-12-01T13:13:04.646Z,102580.38
2022-12-01T13:15:36.555Z,102569.97
2022-12-01T13:18:13.684Z,102566.69
2022-12-01T13:20:42.585Z,102560.69
2022-12-01T13:23:19.127Z,102566.00
2022-12-01T13:25:51.728Z,102570.41
2022-12-01T13:28:23.727Z,102569.63
2022-12-01T13:31:04.046Z,102577.44
2022-12-01T13:33:33.911Z,102576.44
2022-12-01T13:36:38.206Z,102575.31
2022-12-01T13:39:00.331Z,102574.31
2022-12-01T13:41:31.321Z,102574.31
2022-12-01T13:44:02.259Z,102575.97
2022-12-01T13:46:33.148Z,102580.00
2022-12-01T13:49:04.541Z,102577.22
2022-12-01T13:52:05.679Z,102570.28
2022-12-01T13:54:38.453Z,102567.56
2022-12-01T13:57:12.659Z,102566.63
2022-12-01T14:00:21.620Z,102569.22
2022-12-01T14:03:38.859Z,102564.88
2022-12-01T14:06:22.177Z,102557.09
2022-12-01T14:08:54.683Z,102559.69
2022-12-01T14:11:26.457Z,102564.97
2022-12-01T14:13:58.857Z,102561.72
2022-12-01T14:16:46.198Z,102558.31
2022-12-01T14:19:30.872Z,102550.50
2022-12-01T14:22:03.017Z,102547.97
2022-12-01T14:24:36.224Z,102553.38
2022-12-01T14:27:07.667Z,102555.28
2022-12-01T14:29:38.921Z,102548.44
2022-12-01T14:32:22.544Z,102548.25
2022-12-01T14:34:57.216Z,102556.66
2022-12-01T14:37:34.745Z,102548.59
2022-12-01T14:40:08.523Z,102542.97
2022-12-01T14:43:01.581Z,102534.88
2022-12-01T14:45:35.307Z,102540.69
2022-12-01T14:48:06.239Z,102538.81
2022-12-01T14:50:46.435Z,102542.06
2022-12-01T14:53:23.890Z,102545.22
2022-12-01T14:55:57.570Z,102542.44
2022-12-01T14:58:29.141Z,102542.13
2022-12-01T15:01:04.025Z,102540.78
2022-12-01T15:03:37.201Z,102541.34
2022-12-01T15:06:05.862Z,102537.53
2022-12-01T15:08:53.275Z,102543.25
2022-12-01T15:11:26.679Z,102541.22
2022-12-01T15:13:58.032Z,102541.75
2022-12-01T15:16:30.460Z,102546.56
2022-12-01T15:18:58.871Z,102549.72
2022-12-01T15:21:28.799Z,102547.72
2022-12-01T15:23:59.704Z,102542.34
2022-12-01T15:26:31.366Z,102542.97
2022-12-01T15:29:16.948Z,102546.75
2022-12-01T15:31:48.334Z,102551.69
2022-12-01T15:34:19.537Z,102555.69
2022-12-01T15:36:48.466Z,102556.22
2022-12-01T15:39:19.595Z,102556.78
2022-12-01T15:41:54.401Z,102557.31
2022-12-01T15:44:29.687Z,102547.47
2022-12-01T15:46:57.943Z,102546.25
2022-12-01T15:49:30.011Z,102544.84
2022-12-01T15:52:08.826Z,102546.84
2022-12-01T15:54:38.915Z,102551.53
2022-12-01T15:57:08.116Z,102551.06
2022-12-01T15:59:41.824Z,102553.97
2022-12-01T16:02:28.920Z,102550.00
2022-12-01T16:05:05.603Z,102544.44
2022-12-01T16:08:11.937Z,102540.66
2022-12-01T16:10:28.671Z,102541.00
2022-12-01T16:13:30.888Z,102543.16
2022-12-01T16:16:00.501Z,102551.44
2022-12-01T16:18:32.937Z,102552.69
2022-12-01T16:21:04.381Z,102553.19
2022-12-01T16:23:33.523Z,102552.06
2022-12-01T16:26:02.419Z,102555.13
2022-12-01T16:28:35.849Z,102555.47
2022-12-01T16:31:10.182Z,102557.63
2022-12-01T16:33:40.878Z,102568.38
2022-12-01T16:36:09.812Z,102556.97
2022-12-01T16:38:39.197Z,102567.06
2022-12-01T16:41:16.994Z,102562.47
2022-12-01T16:44:05.377Z,102561.34
2022-12-01T16:46:35.378Z,102563.50
2022-12-01T16:49:03.540Z,102563.31
2022-12-01T16:51:54.395Z,102557.03
2022-12-01T16:54:20.265Z,102561.81
2022-12-01T16:56:49.565Z,102560.59
2022-12-01T16:59:17.732Z,102556.88
2022-12-01T17:01:47.474Z,102559.16
2022-12-01T17:04:15.971Z,102559.81
2022-12-01T17:06:44.141Z,102562.19
2022-12-01T17:09:12.415Z,102563.69
2022-12-01T17:11:40.650Z,102569.47
2022-12-01T17:14:10.252Z,102554.59
2022-12-01T17:16:38.886Z,102567.16
2022-12-01T17:19:08.455Z,102565.31
2022-12-01T17:21:36.576Z,102564.31
2022-12-01T17:24:05.146Z,102564.13
2022-12-01T17:26:33.322Z,102565.72
2022-12-01T17:29:01.707Z,102568.13
2022-12-01T17:31:29.948Z,102567.13
2022-12-01T17:33:57.989Z,102571.13
2022-12-01T17:36:27.568Z,102578.63
2022-12-01T17:39:01.305Z,102568.16
2022-12-01T17:41:35.822Z,102573.31
2022-12-01T17:44:07.858Z,102578.28
2022-12-01T17:46:36.028Z,102577.28
2022-12-01T17:49:09.551Z,102578.09
2022-12-01T17:51:39.694Z,102575.44
2022-12-01T17:54:07.581Z,102578.09
2022-12-01T17:56:36.163Z,102578.09
2022-12-01T17:59:04.275Z,102581.13
2022-12-01T18:01:55.257Z,102580.78
2022-12-01T18:04:23.412Z,102580.25
2022-12-01T18:06:54.476Z,102582.31
2022-12-01T18:09:23.452Z,102580.72
2022-12-01T18:11:57.205Z,102579.91
2022-12-01T18:14:37.013Z,102581.06
2022-12-01T18:17:05.509Z,102568.31
2022-12-01T18:19:33.810Z,102568.31
2022-12-01T18:22:03.397Z,102571.59
2022-12-01T18:24:31.639Z,102572.38
2022-12-01T18:26:59.776Z,102569.81
2022-12-01T18:29:30.459Z,102562.28
2022-12-01T18:32:00.474Z,102560.00
2022-12-01T18:34:30.608Z,102567.06
2022-12-01T18:36:58.684Z,102559.53
2022-12-01T18:39:28.325Z,102558.81
2022-12-01T18:41:56.570Z,102552.97
2022-12-01T18:44:24.709Z,102558.38
2022-12-01T18:46:53.112Z,102562.91
2022-12-01T18:49:21.299Z,102559.69
2022-12-01T18:51:49.402Z,102557.56
2022-12-01T18:54:18.101Z,102561.34
2022-12-01T18:56:47.762Z,102557.38
2022-12-01T18:59:17.412Z,102562.53
2022-12-01T19:01:46.627Z,102562.25
2022-12-01T19:04:17.552Z,102566.50
2022-12-01T19:06:46.784Z,102569.97
2022-12-01T19:09:18.173Z,102567.47
2022-12-01T19:11:48.149Z,102571.75
2022-12-01T19:14:19.820Z,102569.97
2022-12-01T19:16:48.261Z,102561.34
2022-12-01T19:19:16.693Z,102564.75
2022-12-01T19:21:45.496Z,102557.03
2022-12-01T19:24:13.706Z,102560.56
2022-12-01T19:26:41.821Z,102555.53
2022-12-01T19:29:11.498Z,102560.56
2022-12-01T19:31:40.180Z,102562.34
2022-12-01T19:34:08.604Z,102558.09
2022-12-01T19:36:37.547Z,102557.38
2022-12-01T19:39:07.782Z,102550.00
2022-12-01T19:41:36.107Z,102558.06
2022-12-01T19:44:04.311Z,102553.09
2022-12-01T19:46:33.956Z,102560.25
2022-12-01T19:49:03.176Z,102553.59
2022-12-01T19:51:35.272Z,102550.22
2022-12-01T19:54:04.340Z,102546.03
2022-12-01T19:56:32.784Z,102547.81
2022-12-01T19:59:01.663Z,102547.00
2022-12-01T20:01:30.208Z,102547.19
2022-12-01T20:03:59.683Z,102537.03
2022-12-01T20:06:32.168Z,102543.28
2022-12-01T20:09:04.321Z,102545.91
2022-12-01T20:11:35.343Z,102542.44
2022-12-01T20:14:04.887Z,102537.41
2022-12-01T20:16:33.483Z,102546.91
2022-12-01T20:19:05.528Z,102538.28
2022-12-01T20:21:35.455Z,102541.75
2022-12-01T20:24:05.695Z,102542.69
2022-12-01T20:26:35.196Z,102538.53
2022-12-01T20:29:05.685Z,102548.88
2022-12-01T20:31:35.536Z,102538.53
2022-12-01T20:34:09.134Z,102535.06
2022-12-01T20:36:37.446Z,102535.94
2022-12-01T20:39:06.570Z,102535.06
2022-12-01T20:41:35.243Z,102545.25
2022-12-01T20:44:07.761Z,102535.88
2022-12-01T20:46:38.222Z,102535.78
2022-12-01T20:49:08.444Z,102545.25
2022-12-01T20:51:36.510Z,102542.69
2022-12-01T20:56:55.823Z,102552.19
2022-12-01T20:59:24.530Z,102550.50
2022-12-01T21:01:54.297Z,102549.63
2022-12-01T21:04:24.403Z,102552.28
2022-12-01T21:06:53.619Z,102551.56
2022-12-01T21:09:21.751Z,102560.25
2022-12-01T21:12:20.531Z,102555.97
2022-12-01T21:14:56.215Z,102550.75
2022-12-01T21:17:34.467Z,102542.78
2022-12-01T21:20:24.979Z,102541.63
2022-12-01T21:22:59.720Z,102548.16
2022-12-01T21:25:33.246Z,102541.00
2022-12-01T21:28:22.503Z,102539.94
2022-12-01T21:30:54.132Z,102546.59
2022-12-01T21:33:29.307Z,102541.91
2022-12-01T21:36:01.154Z,102540.69
2022-12-01T21:38:29.809Z,102543.63
2022-12-01T21:40:58.351Z,102542.31
2022-12-01T21:43:38.596Z,102540.28
2022-12-01T21:46:15.297Z,102534.00
2022-12-01T21:48:44.585Z,102529.38
2022-12-01T21:51:23.331Z,102528.31
2022-12-01T21:53:53.079Z,102525.59
2022-12-01T21:56:23.004Z,102523.81
2022-12-01T21:58:51.871Z,102528.84
2022-12-01T22:01:26.118Z,102527.00
2022-12-01T22:04:01.810Z,102532.06
2022-12-01T22:06:37.048Z,102536.50
2022-12-01T22:09:20.945Z,102537.56
2022-12-01T22:11:53.072Z,102538.59
2022-12-01T22:14:25.444Z,102535.44
2022-12-01T22:17:00.624Z,102536.38
2022-12-01T22:19:31.922Z,102533.13
2022-12-01T22:22:18.729Z,102531.69
2022-12-01T22:24:48.874Z,102532.75
2022-12-01T22:27:29.391Z,102543.28
2022-12-01T22:29:58.507Z,102536.81
2022-12-01T22:32:57.233Z,102539.63
2022-12-01T22:35:31.131Z,102538.13
2022-12-01T22:38:27.702Z,102537.47
2022-12-01T22:40:59.363Z,102530.75
2022-12-01T22:43:44.700Z,102533.38
2022-12-01T22:46:30.592Z,102527.38
2022-12-01T22:49:00.789Z,102533.38
2022-12-01T22:51:30.386Z,102535.16
2022-12-01T22:54:07.561Z,102535.16
2022-12-01T22:56:39.878Z,102537.72
2022-12-01T22:59:16.168Z,102538.72
2022-12-01T23:01:52.499Z,102539.56
2022-12-01T23:04:25.075Z,102534.44
2022-12-01T23:07:28.921Z,102532.84
2022-12-01T23:10:03.727Z,102537.97
2022-12-01T23:12:33.568Z,102527.69
2022-12-01T23:15:16.656Z,102532.03
2022-12-01T23:17:44.755Z,102526.97
2022-12-01T23:20:29.604Z,102519.25
2022-12-01T23:23:00.174Z,102532.13
2022-12-01T23:25:30.195Z,102536.47
2022-12-01T23:28:04.204Z,102530.44
2022-12-01T23:30:34.113Z,102538.16
2022-12-01T23:33:16.523Z,102540.56
2022-12-01T23:35:49.257Z,102534.44
2022-12-01T23:38:20.396Z,102542.06
2022-12-01T23:40:51.453Z,102532.50
2022-12-01T23:43:22.243Z,102534.91
2022-12-01T23:45:57.715Z,102537.94
2022-12-01T23:48:33.386Z,102536.81
2022-12-01T23:51:01.487Z,102534.06
2022-12-01T23:53:32.204Z,102530.44
2022-12-01T23:56:05.739Z,102532.94
2022-12-01T23:58:35.460Z,102525.81
